sensor_id;sensor_type;location;lat;lon;timestamp;temperature;humidity
16114;DHT22;8161;-33.910;151.156;2022-11-18T00:01:12;22.30;99.90
16114;DHT22;8161;-33.910;151.156;2022-11-18T00:03:40;22.20;99.90
16114;DHT22;8161;-33.910;151.156;2022-11-18T00:06:11;22.10;99.90
16114;DHT22;8161;-33.910;151.156;2022-11-18T00:08:38;22.30;99.90
16114;DHT22;8161;-33.910;151.156;2022-11-18T00:11:07;22.50;99.90
16114;DHT22;8161;-33.910;151.156;2022-11-18T00:13:36;22.60;99.90
16114;DHT22;8161;-33.910;151.156;2022-11-18T00:16:16;22.90;99.90
16114;DHT22;8161;-33.910;151.156;2022-11-18T00:18:44;23.00;99.90
16114;DHT22;8161;-33.910;151.156;2022-11-18T00:21:12;23.10;99.90
16114;DHT22;8161;-33.910;151.156;2022-11-18T00:23:39;23.10;99.90
16114;DHT22;8161;-33.910;151.156;2022-11-18T00:26:09;23.30;99.90
16114;DHT22;8161;-33.910;151.156;2022-11-18T00:28:38;23.40;99.90
16114;DHT22;8161;-33.910;151.156;2022-11-18T00:31:11;23.70;99.90
16114;DHT22;8161;-33.910;151.156;2022-11-18T00:33:39;23.90;99.90
16114;DHT22;8161;-33.910;151.156;2022-11-18T00:36:09;24.00;99.90
16114;DHT22;8161;-33.910;151.156;2022-11-18T00:38:37;24.10;99.90
16114;DHT22;8161;-33.910;151.156;2022-11-18T00:41:12;24.10;99.90
16114;DHT22;8161;-33.910;151.156;2022-11-18T00:43:40;24.20;99.90
16114;DHT22;8161;-33.910;151.156;2022-11-18T00:46:09;24.20;99.90
16114;DHT22;8161;-33.910;151.156;2022-11-18T00:48:37;24.10;99.90
16114;DHT22;8161;-33.910;151.156;2022-11-18T00:51:17;24.00;99.90
16114;DHT22;8161;-33.910;151.156;2022-11-18T00:53:44;24.00;99.90
16114;DHT22;8161;-33.910;151.156;2022-11-18T00:56:11;24.20;99.90
16114;DHT22;8161;-33.910;151.156;2022-11-18T00:58:39;24.20;99.90
16114;DHT22;8161;-33.910;151.156;2022-11-18T01:01:06;24.40;99.90
16114;DHT22;8161;-33.910;151.156;2022-11-18T01:03:33;24.50;99.90
16114;DHT22;8161;-33.910;151.156;2022-11-18T01:06:00;24.50;99.90
16114;DHT22;8161;-33.910;151.156;2022-11-18T01:08:27;24.40;99.90
16114;DHT22;8161;-33.910;151.156;2022-11-18T01:10:55;24.40;99.90
16114;DHT22;8161;-33.910;151.156;2022-11-18T01:13:41;24.30;99.90
16114;DHT22;8161;-33.910;151.156;2022-11-18T01:16:09;24.40;99.90
16114;DHT22;8161;-33.910;151.156;2022-11-18T01:18:36;24.40;99.90
16114;DHT22;8161;-33.910;151.156;2022-11-18T01:21:03;24.50;99.90
16114;DHT22;8161;-33.910;151.156;2022-11-18T01:23:31;24.60;99.90
16114;DHT22;8161;-33.910;151.156;2022-11-18T01:26:07;24.50;99.90
16114;DHT22;8161;-33.910;151.156;2022-11-18T01:28:35;24.50;99.90
16114;DHT22;8161;-33.910;151.156;2022-11-18T01:31:09;24.60;99.90
16114;DHT22;8161;-33.910;151.156;2022-11-18T01:33:36;24.70;99.90
16114;DHT22;8161;-33.910;151.156;2022-11-18T01:36:12;24.80;99.90
16114;DHT22;8161;-33.910;151.156;2022-11-18T01:38:40;25.00;99.90
16114;DHT22;8161;-33.910;151.156;2022-11-18T01:41:07;25.00;99.90
16114;DHT22;8161;-33.910;151.156;2022-11-18T01:46:24;24.70;99.90
16114;DHT22;8161;-33.910;151.156;2022-11-18T01:49:05;24.60;99.90
16114;DHT22;8161;-33.910;151.156;2022-11-18T01:51:41;24.60;99.90
16114;DHT22;8161;-33.910;151.156;2022-11-18T01:54:26;24.60;99.90
16114;DHT22;8161;-33.910;151.156;2022-11-18T01:56:57;24.60;99.90
16114;DHT22;8161;-33.910;151.156;2022-11-18T01:59:30;24.80;99.90
16114;DHT22;8161;-33.910;151.156;2022-11-18T02:02:01;25.00;99.90
16114;DHT22;8161;-33.910;151.156;2022-11-18T02:04:31;24.80;99.90
16114;DHT22;8161;-33.910;151.156;2022-11-18T02:06:59;24.90;99.90
16114;DHT22;8161;-33.910;151.156;2022-11-18T02:09:26;25.00;99.90
16114;DHT22;8161;-33.910;151.156;2022-11-18T02:11:53;25.10;99.90
16114;DHT22;8161;-33.910;151.156;2022-11-18T02:14:27;25.10;99.90
16114;DHT22;8161;-33.910;151.156;2022-11-18T02:17:13;25.20;99.90
16114;DHT22;8161;-33.910;151.156;2022-11-18T02:25:30;25.60;99.90
16114;DHT22;8161;-33.910;151.156;2022-11-18T02:33:52;25.80;99.90
16114;DHT22;8161;-33.910;151.156;2022-11-18T02:36:43;25.90;99.90
16114;DHT22;8161;-33.910;151.156;2022-11-18T02:39:18;25.90;99.90
16114;DHT22;8161;-33.910;151.156;2022-11-18T02:41:47;25.80;99.90
16114;DHT22;8161;-33.910;151.156;2022-11-18T02:44:16;25.70;99.90
16114;DHT22;8161;-33.910;151.156;2022-11-18T02:46:48;25.70;99.90
16114;DHT22;8161;-33.910;151.156;2022-11-18T02:49:37;25.70;99.90
16114;DHT22;8161;-33.910;151.156;2022-11-18T02:52:06;25.70;99.90
16114;DHT22;8161;-33.910;151.156;2022-11-18T02:54:38;25.80;99.90
16114;DHT22;8161;-33.910;151.156;2022-11-18T02:57:06;25.80;99.90
16114;DHT22;8161;-33.910;151.156;2022-11-18T02:59:34;25.80;99.90
16114;DHT22;8161;-33.910;151.156;2022-11-18T03:02:02;25.90;99.90
16114;DHT22;8161;-33.910;151.156;2022-11-18T03:04:30;25.90;99.90
16114;DHT22;8161;-33.910;151.156;2022-11-18T03:07:28;26.00;99.90
16114;DHT22;8161;-33.910;151.156;2022-11-18T03:09:57;26.20;99.90
16114;DHT22;8161;-33.910;151.156;2022-11-18T03:12:31;26.30;99.90
16114;DHT22;8161;-33.910;151.156;2022-11-18T03:23:04;26.40;99.90
16114;DHT22;8161;-33.910;151.156;2022-11-18T03:25:37;26.50;99.90
16114;DHT22;8161;-33.910;151.156;2022-11-18T03:34:16;26.30;99.90
16114;DHT22;8161;-33.910;151.156;2022-11-18T03:36:48;26.30;99.90
16114;DHT22;8161;-33.910;151.156;2022-11-18T03:39:16;26.30;99.90
16114;DHT22;8161;-33.910;151.156;2022-11-18T03:41:58;26.30;99.90
16114;DHT22;8161;-33.910;151.156;2022-11-18T03:44:35;26.40;99.90
16114;DHT22;8161;-33.910;151.156;2022-11-18T03:47:14;26.40;99.90
16114;DHT22;8161;-33.910;151.156;2022-11-18T03:49:47;26.50;99.90
16114;DHT22;8161;-33.910;151.156;2022-11-18T03:52:24;26.30;99.90
16114;DHT22;8161;-33.910;151.156;2022-11-18T03:54:55;26.00;99.90
16114;DHT22;8161;-33.910;151.156;2022-11-18T04:00:27;25.90;99.90
16114;DHT22;8161;-33.910;151.156;2022-11-18T04:02:55;25.90;99.90
16114;DHT22;8161;-33.910;151.156;2022-11-18T04:05:22;26.00;99.90
16114;DHT22;8161;-33.910;151.156;2022-11-18T04:07:58;26.20;99.90
16114;DHT22;8161;-33.910;151.156;2022-11-18T04:13:16;26.70;99.90
16114;DHT22;8161;-33.910;151.156;2022-11-18T04:15:44;26.80;99.90
16114;DHT22;8161;-33.910;151.156;2022-11-18T04:18:12;26.90;99.90
16114;DHT22;8161;-33.910;151.156;2022-11-18T04:20:39;26.90;99.90
16114;DHT22;8161;-33.910;151.156;2022-11-18T04:23:07;26.90;99.90
16114;DHT22;8161;-33.910;151.156;2022-11-18T04:25:34;26.90;99.90
16114;DHT22;8161;-33.910;151.156;2022-11-18T04:28:02;26.90;99.90
16114;DHT22;8161;-33.910;151.156;2022-11-18T04:30:29;26.90;99.90
16114;DHT22;8161;-33.910;151.156;2022-11-18T04:32:57;26.90;99.90
16114;DHT22;8161;-33.910;151.156;2022-11-18T04:35:25;26.80;99.90
16114;DHT22;8161;-33.910;151.156;2022-11-18T04:37:53;26.70;99.90
16114;DHT22;8161;-33.910;151.156;2022-11-18T04:40:20;26.80;99.90
16114;DHT22;8161;-33.910;151.156;2022-11-18T04:42:47;26.90;99.90
16114;DHT22;8161;-33.910;151.156;2022-11-18T04:45:15;26.90;99.90
16114;DHT22;8161;-33.910;151.156;2022-11-18T04:47:42;26.90;99.90
16114;DHT22;8161;-33.910;151.156;2022-11-18T04:50:10;26.70;99.90
16114;DHT22;8161;-33.910;151.156;2022-11-18T04:52:37;26.70;99.90
16114;DHT22;8161;-33.910;151.156;2022-11-18T04:55:04;26.60;99.90
16114;DHT22;8161;-33.910;151.156;2022-11-18T04:57:32;26.70;99.90
16114;DHT22;8161;-33.910;151.156;2022-11-18T04:59:59;26.80;99.90
16114;DHT22;8161;-33.910;151.156;2022-11-18T05:02:26;26.80;99.90
16114;DHT22;8161;-33.910;151.156;2022-11-18T05:04:53;26.90;99.90
16114;DHT22;8161;-33.910;151.156;2022-11-18T05:07:21;26.90;99.90
16114;DHT22;8161;-33.910;151.156;2022-11-18T05:09:48;27.00;99.90
16114;DHT22;8161;-33.910;151.156;2022-11-18T05:12:15;26.90;99.90
16114;DHT22;8161;-33.910;151.156;2022-11-18T05:14:56;26.90;99.90
16114;DHT22;8161;-33.910;151.156;2022-11-18T05:17:23;27.00;99.90
16114;DHT22;8161;-33.910;151.156;2022-11-18T05:19:51;27.10;99.90
16114;DHT22;8161;-33.910;151.156;2022-11-18T05:22:18;27.10;99.90
16114;DHT22;8161;-33.910;151.156;2022-11-18T05:24:45;27.10;99.90
16114;DHT22;8161;-33.910;151.156;2022-11-18T05:27:13;27.20;99.90
16114;DHT22;8161;-33.910;151.156;2022-11-18T05:29:41;27.30;99.90
16114;DHT22;8161;-33.910;151.156;2022-11-18T05:32:08;27.50;99.90
16114;DHT22;8161;-33.910;151.156;2022-11-18T05:34:36;27.60;99.90
16114;DHT22;8161;-33.910;151.156;2022-11-18T05:37:03;27.60;99.90
16114;DHT22;8161;-33.910;151.156;2022-11-18T05:39:31;27.60;99.90
16114;DHT22;8161;-33.910;151.156;2022-11-18T05:42:00;27.80;99.90
16114;DHT22;8161;-33.910;151.156;2022-11-18T05:44:41;28.10;99.90
16114;DHT22;8161;-33.910;151.156;2022-11-18T05:47:08;28.20;99.90
16114;DHT22;8161;-33.910;151.156;2022-11-18T05:49:36;28.20;99.90
16114;DHT22;8161;-33.910;151.156;2022-11-18T05:52:04;28.20;99.90
16114;DHT22;8161;-33.910;151.156;2022-11-18T05:54:32;28.20;99.90
16114;DHT22;8161;-33.910;151.156;2022-11-18T05:56:59;28.40;99.90
16114;DHT22;8161;-33.910;151.156;2022-11-18T05:59:26;28.50;99.90
16114;DHT22;8161;-33.910;151.156;2022-11-18T06:02:01;28.70;99.90
16114;DHT22;8161;-33.910;151.156;2022-11-18T06:04:45;28.90;99.90
16114;DHT22;8161;-33.910;151.156;2022-11-18T06:07:44;29.00;99.90
16114;DHT22;8161;-33.910;151.156;2022-11-18T06:10:31;29.00;99.90
16114;DHT22;8161;-33.910;151.156;2022-11-18T06:13:04;28.80;99.90
16114;DHT22;8161;-33.910;151.156;2022-11-18T06:15:36;28.70;99.90
16114;DHT22;8161;-33.910;151.156;2022-11-18T06:18:11;28.60;99.90
16114;DHT22;8161;-33.910;151.156;2022-11-18T06:20:42;28.50;99.90
16114;DHT22;8161;-33.910;151.156;2022-11-18T06:23:10;28.40;99.90
16114;DHT22;8161;-33.910;151.156;2022-11-18T06:25:39;28.60;99.90
16114;DHT22;8161;-33.910;151.156;2022-11-18T06:28:09;28.80;99.90
16114;DHT22;8161;-33.910;151.156;2022-11-18T06:30:38;28.90;99.90
16114;DHT22;8161;-33.910;151.156;2022-11-18T06:33:05;28.90;99.90
16114;DHT22;8161;-33.910;151.156;2022-11-18T06:35:33;28.90;99.90
16114;DHT22;8161;-33.910;151.156;2022-11-18T06:38:01;28.70;99.90
16114;DHT22;8161;-33.910;151.156;2022-11-18T06:40:28;28.60;99.90
16114;DHT22;8161;-33.910;151.156;2022-11-18T06:42:56;28.50;99.90
16114;DHT22;8161;-33.910;151.156;2022-11-18T06:45:36;28.40;99.90
16114;DHT22;8161;-33.910;151.156;2022-11-18T06:48:04;28.30;99.90
16114;DHT22;8161;-33.910;151.156;2022-11-18T06:50:31;28.20;99.90
16114;DHT22;8161;-33.910;151.156;2022-11-18T06:53:02;27.90;99.90
16114;DHT22;8161;-33.910;151.156;2022-11-18T06:55:29;27.80;99.90
16114;DHT22;8161;-33.910;151.156;2022-11-18T06:57:56;27.70;99.90
16114;DHT22;8161;-33.910;151.156;2022-11-18T07:00:24;27.60;99.90
16114;DHT22;8161;-33.910;151.156;2022-11-18T07:02:51;27.50;99.90
16114;DHT22;8161;-33.910;151.156;2022-11-18T07:05:18;27.20;99.90
16114;DHT22;8161;-33.910;151.156;2022-11-18T07:07:45;27.10;99.90
16114;DHT22;8161;-33.910;151.156;2022-11-18T07:10:13;26.90;99.90
16114;DHT22;8161;-33.910;151.156;2022-11-18T07:12:40;26.80;99.90
16114;DHT22;8161;-33.910;151.156;2022-11-18T07:15:08;26.80;99.90
16114;DHT22;8161;-33.910;151.156;2022-11-18T07:17:35;26.60;99.90
16114;DHT22;8161;-33.910;151.156;2022-11-18T07:20:02;26.40;99.90
16114;DHT22;8161;-33.910;151.156;2022-11-18T07:22:30;26.10;99.90
16114;DHT22;8161;-33.910;151.156;2022-11-18T07:24:57;25.90;99.90
16114;DHT22;8161;-33.910;151.156;2022-11-18T07:27:24;25.70;99.90
16114;DHT22;8161;-33.910;151.156;2022-11-18T07:29:52;25.40;99.90
16114;DHT22;8161;-33.910;151.156;2022-11-18T07:32:19;25.20;99.90
16114;DHT22;8161;-33.910;151.156;2022-11-18T07:34:46;25.00;99.90
16114;DHT22;8161;-33.910;151.156;2022-11-18T07:37:13;24.90;99.90
16114;DHT22;8161;-33.910;151.156;2022-11-18T07:39:41;24.70;99.90
16114;DHT22;8161;-33.910;151.156;2022-11-18T07:42:09;24.40;99.90
16114;DHT22;8161;-33.910;151.156;2022-11-18T07:44:36;24.30;99.90
16114;DHT22;8161;-33.910;151.156;2022-11-18T07:47:03;24.10;99.90
16114;DHT22;8161;-33.910;151.156;2022-11-18T07:49:31;24.00;99.90
16114;DHT22;8161;-33.910;151.156;2022-11-18T07:51:58;23.90;99.90
16114;DHT22;8161;-33.910;151.156;2022-11-18T07:54:25;23.60;99.90
16114;DHT22;8161;-33.910;151.156;2022-11-18T07:56:52;23.50;99.90
16114;DHT22;8161;-33.910;151.156;2022-11-18T07:59:20;23.40;99.90
16114;DHT22;8161;-33.910;151.156;2022-11-18T08:01:47;23.30;99.90
16114;DHT22;8161;-33.910;151.156;2022-11-18T08:04:14;23.20;99.90
16114;DHT22;8161;-33.910;151.156;2022-11-18T08:06:43;23.10;99.90
16114;DHT22;8161;-33.910;151.156;2022-11-18T08:09:11;23.00;99.90
16114;DHT22;8161;-33.910;151.156;2022-11-18T08:11:41;23.00;99.90
16114;DHT22;8161;-33.910;151.156;2022-11-18T08:14:09;22.90;99.90
16114;DHT22;8161;-33.910;151.156;2022-11-18T08:16:36;22.80;99.90
16114;DHT22;8161;-33.910;151.156;2022-11-18T08:19:03;22.70;99.90
16114;DHT22;8161;-33.910;151.156;2022-11-18T08:21:30;22.60;99.90
16114;DHT22;8161;-33.910;151.156;2022-11-18T08:23:59;22.60;99.90
16114;DHT22;8161;-33.910;151.156;2022-11-18T08:26:26;22.50;99.90
16114;DHT22;8161;-33.910;151.156;2022-11-18T08:28:55;22.40;99.90
16114;DHT22;8161;-33.910;151.156;2022-11-18T08:31:25;22.30;99.90
16114;DHT22;8161;-33.910;151.156;2022-11-18T08:33:56;22.20;99.90
16114;DHT22;8161;-33.910;151.156;2022-11-18T08:36:26;22.20;99.90
16114;DHT22;8161;-33.910;151.156;2022-11-18T08:38:58;22.10;99.90
16114;DHT22;8161;-33.910;151.156;2022-11-18T08:41:41;22.00;99.90
16114;DHT22;8161;-33.910;151.156;2022-11-18T08:44:13;21.90;99.90
16114;DHT22;8161;-33.910;151.156;2022-11-18T08:46:42;21.90;99.90
16114;DHT22;8161;-33.910;151.156;2022-11-18T08:49:13;21.80;99.90
16114;DHT22;8161;-33.910;151.156;2022-11-18T08:51:40;21.80;99.90
16114;DHT22;8161;-33.910;151.156;2022-11-18T08:54:08;21.70;99.90
16114;DHT22;8161;-33.910;151.156;2022-11-18T08:56:35;21.70;99.90
16114;DHT22;8161;-33.910;151.156;2022-11-18T08:59:02;21.60;99.90
16114;DHT22;8161;-33.910;151.156;2022-11-18T09:01:30;21.60;99.90
16114;DHT22;8161;-33.910;151.156;2022-11-18T09:03:57;21.50;99.90
16114;DHT22;8161;-33.910;151.156;2022-11-18T09:06:24;21.50;99.90
16114;DHT22;8161;-33.910;151.156;2022-11-18T09:08:53;21.50;99.90
16114;DHT22;8161;-33.910;151.156;2022-11-18T09:11:22;21.40;99.90
16114;DHT22;8161;-33.910;151.156;2022-11-18T09:13:57;21.40;99.90
16114;DHT22;8161;-33.910;151.156;2022-11-18T09:16:27;21.30;99.90
16114;DHT22;8161;-33.910;151.156;2022-11-18T09:18:55;21.30;99.90
16114;DHT22;8161;-33.910;151.156;2022-11-18T09:21:24;21.20;99.90
16114;DHT22;8161;-33.910;151.156;2022-11-18T09:23:51;21.20;99.90
16114;DHT22;8161;-33.910;151.156;2022-11-18T09:26:21;21.10;99.90
16114;DHT22;8161;-33.910;151.156;2022-11-18T09:28:52;21.00;99.90
16114;DHT22;8161;-33.910;151.156;2022-11-18T09:31:20;21.00;99.90
16114;DHT22;8161;-33.910;151.156;2022-11-18T09:33:47;20.90;99.90
16114;DHT22;8161;-33.910;151.156;2022-11-18T09:36:17;20.90;99.90
16114;DHT22;8161;-33.910;151.156;2022-11-18T09:38:45;20.90;99.90
16114;DHT22;8161;-33.910;151.156;2022-11-18T09:44:07;20.80;99.90
16114;DHT22;8161;-33.910;151.156;2022-11-18T09:47:05;20.80;99.90
16114;DHT22;8161;-33.910;151.156;2022-11-18T09:49:40;20.70;99.90
16114;DHT22;8161;-33.910;151.156;2022-11-18T09:52:18;20.70;99.90
16114;DHT22;8161;-33.910;151.156;2022-11-18T09:54:46;20.70;99.90
16114;DHT22;8161;-33.910;151.156;2022-11-18T09:57:25;20.70;99.90
16114;DHT22;8161;-33.910;151.156;2022-11-18T09:59:55;20.70;99.90
16114;DHT22;8161;-33.910;151.156;2022-11-18T10:05:21;20.60;99.90
16114;DHT22;8161;-33.910;151.156;2022-11-18T10:08:03;20.60;99.90
16114;DHT22;8161;-33.910;151.156;2022-11-18T10:14:26;20.50;99.90
16114;DHT22;8161;-33.910;151.156;2022-11-18T10:17:21;20.50;99.90
16114;DHT22;8161;-33.910;151.156;2022-11-18T10:19:51;20.40;99.90
16114;DHT22;8161;-33.910;151.156;2022-11-18T10:22:53;20.40;99.90
16114;DHT22;8161;-33.910;151.156;2022-11-18T10:25:16;20.40;99.90
16114;DHT22;8161;-33.910;151.156;2022-11-18T10:27:46;20.30;99.90
16114;DHT22;8161;-33.910;151.156;2022-11-18T10:30:19;20.40;99.90
16114;DHT22;8161;-33.910;151.156;2022-11-18T10:35:32;20.30;99.90
16114;DHT22;8161;-33.910;151.156;2022-11-18T10:51:45;20.10;99.90
16114;DHT22;8161;-33.910;151.156;2022-11-18T10:59:39;20.00;99.90
16114;DHT22;8161;-33.910;151.156;2022-11-18T11:04:40;19.90;99.90
16114;DHT22;8161;-33.910;151.156;2022-11-18T11:07:34;19.90;99.90
16114;DHT22;8161;-33.910;151.156;2022-11-18T11:12:46;19.90;99.90
16114;DHT22;8161;-33.910;151.156;2022-11-18T11:15:38;19.90;99.90
16114;DHT22;8161;-33.910;151.156;2022-11-18T11:18:31;19.90;99.90
16114;DHT22;8161;-33.910;151.156;2022-11-18T11:21:19;19.80;99.90
16114;DHT22;8161;-33.910;151.156;2022-11-18T11:23:48;19.80;99.90
16114;DHT22;8161;-33.910;151.156;2022-11-18T11:34:45;19.70;99.90
16114;DHT22;8161;-33.910;151.156;2022-11-18T11:45:35;19.50;99.90
16114;DHT22;8161;-33.910;151.156;2022-11-18T11:50:51;19.50;99.90
16114;DHT22;8161;-33.910;151.156;2022-11-18T12:04:59;19.30;99.90
16114;DHT22;8161;-33.910;151.156;2022-11-18T12:07:31;19.30;99.90
16114;DHT22;8161;-33.910;151.156;2022-11-18T12:10:16;19.30;99.90
16114;DHT22;8161;-33.910;151.156;2022-11-18T12:15:45;19.10;99.90
16114;DHT22;8161;-33.910;151.156;2022-11-18T12:20:51;18.90;99.90
16114;DHT22;8161;-33.910;151.156;2022-11-18T12:28:30;18.90;99.90
16114;DHT22;8161;-33.910;151.156;2022-11-18T12:33:56;18.80;99.90
16114;DHT22;8161;-33.910;151.156;2022-11-18T12:36:25;18.80;99.90
16114;DHT22;8161;-33.910;151.156;2022-11-18T12:38:53;18.80;99.90
16114;DHT22;8161;-33.910;151.156;2022-11-18T12:44:28;18.80;99.90
16114;DHT22;8161;-33.910;151.156;2022-11-18T12:46:57;18.80;99.90
16114;DHT22;8161;-33.910;151.156;2022-11-18T12:57:00;18.80;99.90
16114;DHT22;8161;-33.910;151.156;2022-11-18T12:59:33;18.80;99.90
16114;DHT22;8161;-33.910;151.156;2022-11-18T13:02:27;18.70;99.90
16114;DHT22;8161;-33.910;151.156;2022-11-18T13:05:18;18.70;99.90
16114;DHT22;8161;-33.910;151.156;2022-11-18T13:08:08;18.70;99.90
16114;DHT22;8161;-33.910;151.156;2022-11-18T13:10:46;18.60;99.90
16114;DHT22;8161;-33.910;151.156;2022-11-18T13:15:50;18.60;99.90
16114;DHT22;8161;-33.910;151.156;2022-11-18T13:18:31;18.60;99.90
16114;DHT22;8161;-33.910;151.156;2022-11-18T13:21:00;18.60;99.90
16114;DHT22;8161;-33.910;151.156;2022-11-18T13:23:40;18.60;99.90
16114;DHT22;8161;-33.910;151.156;2022-11-18T13:35:03;18.40;99.90
16114;DHT22;8161;-33.910;151.156;2022-11-18T13:37:33;18.40;99.90
16114;DHT22;8161;-33.910;151.156;2022-11-18T13:40:00;18.40;99.90
16114;DHT22;8161;-33.910;151.156;2022-11-18T13:42:30;18.40;99.90
16114;DHT22;8161;-33.910;151.156;2022-11-18T13:44:59;18.30;99.90
16114;DHT22;8161;-33.910;151.156;2022-11-18T13:47:44;18.30;99.90
16114;DHT22;8161;-33.910;151.156;2022-11-18T13:55:30;18.20;99.90
16114;DHT22;8161;-33.910;151.156;2022-11-18T13:58:04;18.20;99.90
16114;DHT22;8161;-33.910;151.156;2022-11-18T14:00:34;18.20;99.90
16114;DHT22;8161;-33.910;151.156;2022-11-18T14:03:22;18.40;99.90
16114;DHT22;8161;-33.910;151.156;2022-11-18T14:05:57;18.10;99.90
16114;DHT22;8161;-33.910;151.156;2022-11-18T14:08:32;18.10;99.90
16114;DHT22;8161;-33.910;151.156;2022-11-18T14:11:00;18.10;99.90
16114;DHT22;8161;-33.910;151.156;2022-11-18T14:13:30;18.00;99.90
16114;DHT22;8161;-33.910;151.156;2022-11-18T14:16:03;18.00;99.90
16114;DHT22;8161;-33.910;151.156;2022-11-18T14:18:50;17.90;99.90
16114;DHT22;8161;-33.910;151.156;2022-11-18T14:21:47;17.90;99.90
16114;DHT22;8161;-33.910;151.156;2022-11-18T14:24:14;17.80;99.90
16114;DHT22;8161;-33.910;151.156;2022-11-18T14:26:41;17.80;99.90
16114;DHT22;8161;-33.910;151.156;2022-11-18T14:29:18;17.80;99.90
16114;DHT22;8161;-33.910;151.156;2022-11-18T14:34:39;18.00;99.90
16114;DHT22;8161;-33.910;151.156;2022-11-18T14:37:12;17.70;99.90
16114;DHT22;8161;-33.910;151.156;2022-11-18T14:39:40;17.70;99.90
16114;DHT22;8161;-33.910;151.156;2022-11-18T14:42:12;17.70;99.90
16114;DHT22;8161;-33.910;151.156;2022-11-18T14:44:39;17.60;99.90
16114;DHT22;8161;-33.910;151.156;2022-11-18T14:47:18;17.60;99.90
16114;DHT22;8161;-33.910;151.156;2022-11-18T14:49:46;17.60;99.90
16114;DHT22;8161;-33.910;151.156;2022-11-18T14:52:14;17.60;99.90
16114;DHT22;8161;-33.910;151.156;2022-11-18T14:54:42;17.60;99.90
16114;DHT22;8161;-33.910;151.156;2022-11-18T14:57:15;17.60;99.90
16114;DHT22;8161;-33.910;151.156;2022-11-18T14:59:44;17.50;99.90
16114;DHT22;8161;-33.910;151.156;2022-11-18T15:02:14;17.50;99.90
16114;DHT22;8161;-33.910;151.156;2022-11-18T15:04:42;17.50;99.90
16114;DHT22;8161;-33.910;151.156;2022-11-18T15:07:12;17.40;99.90
16114;DHT22;8161;-33.910;151.156;2022-11-18T15:09:41;17.40;99.90
16114;DHT22;8161;-33.910;151.156;2022-11-18T15:12:08;17.30;99.90
16114;DHT22;8161;-33.910;151.156;2022-11-18T15:14:35;17.30;99.90
16114;DHT22;8161;-33.910;151.156;2022-11-18T15:17:03;17.30;99.90
16114;DHT22;8161;-33.910;151.156;2022-11-18T15:19:31;17.20;99.90
16114;DHT22;8161;-33.910;151.156;2022-11-18T15:21:58;17.20;99.90
16114;DHT22;8161;-33.910;151.156;2022-11-18T15:24:26;17.20;99.90
16114;DHT22;8161;-33.910;151.156;2022-11-18T15:26:53;17.20;99.90
16114;DHT22;8161;-33.910;151.156;2022-11-18T15:29:22;17.10;99.90
16114;DHT22;8161;-33.910;151.156;2022-11-18T15:31:50;17.00;99.90
16114;DHT22;8161;-33.910;151.156;2022-11-18T15:34:18;17.00;99.90
16114;DHT22;8161;-33.910;151.156;2022-11-18T15:36:46;17.00;99.90
16114;DHT22;8161;-33.910;151.156;2022-11-18T15:39:13;17.00;99.90
16114;DHT22;8161;-33.910;151.156;2022-11-18T15:41:41;16.90;99.90
16114;DHT22;8161;-33.910;151.156;2022-11-18T15:44:10;17.00;99.90
16114;DHT22;8161;-33.910;151.156;2022-11-18T15:46:37;16.90;99.90
16114;DHT22;8161;-33.910;151.156;2022-11-18T15:49:05;16.90;99.90
16114;DHT22;8161;-33.910;151.156;2022-11-18T15:51:32;16.90;99.90
16114;DHT22;8161;-33.910;151.156;2022-11-18T15:54:00;16.80;99.90
16114;DHT22;8161;-33.910;151.156;2022-11-18T15:56:29;16.80;99.90
16114;DHT22;8161;-33.910;151.156;2022-11-18T15:59:03;16.80;99.90
16114;DHT22;8161;-33.910;151.156;2022-11-18T16:01:36;16.70;99.90
16114;DHT22;8161;-33.910;151.156;2022-11-18T16:04:05;16.70;99.90
16114;DHT22;8161;-33.910;151.156;2022-11-18T16:06:32;16.70;99.90
16114;DHT22;8161;-33.910;151.156;2022-11-18T16:09:00;16.70;99.90
16114;DHT22;8161;-33.910;151.156;2022-11-18T16:11:28;16.60;99.90
16114;DHT22;8161;-33.910;151.156;2022-11-18T16:14:11;16.60;99.90
16114;DHT22;8161;-33.910;151.156;2022-11-18T16:16:39;16.60;99.90
16114;DHT22;8161;-33.910;151.156;2022-11-18T16:19:10;16.60;99.90
16114;DHT22;8161;-33.910;151.156;2022-11-18T16:21:41;16.60;99.90
16114;DHT22;8161;-33.910;151.156;2022-11-18T16:24:12;16.60;99.90
16114;DHT22;8161;-33.910;151.156;2022-11-18T16:26:40;16.60;99.90
16114;DHT22;8161;-33.910;151.156;2022-11-18T16:29:10;16.60;99.90
16114;DHT22;8161;-33.910;151.156;2022-11-18T16:31:38;16.60;99.90
16114;DHT22;8161;-33.910;151.156;2022-11-18T16:34:13;16.50;99.90
16114;DHT22;8161;-33.910;151.156;2022-11-18T16:36:43;16.50;99.90
16114;DHT22;8161;-33.910;151.156;2022-11-18T16:39:16;16.50;99.90
16114;DHT22;8161;-33.910;151.156;2022-11-18T16:41:44;16.40;99.90
16114;DHT22;8161;-33.910;151.156;2022-11-18T16:44:14;16.50;99.90
16114;DHT22;8161;-33.910;151.156;2022-11-18T16:47:01;16.40;99.90
16114;DHT22;8161;-33.910;151.156;2022-11-18T16:49:29;16.40;99.90
16114;DHT22;8161;-33.910;151.156;2022-11-18T16:51:56;16.30;99.90
16114;DHT22;8161;-33.910;151.156;2022-11-18T16:54:29;16.30;99.90
16114;DHT22;8161;-33.910;151.156;2022-11-18T16:56:57;16.30;99.90
16114;DHT22;8161;-33.910;151.156;2022-11-18T16:59:29;16.30;99.90
16114;DHT22;8161;-33.910;151.156;2022-11-18T17:01:57;16.30;99.90
16114;DHT22;8161;-33.910;151.156;2022-11-18T17:04:27;16.20;99.90
16114;DHT22;8161;-33.910;151.156;2022-11-18T17:06:55;16.20;99.90
16114;DHT22;8161;-33.910;151.156;2022-11-18T17:09:25;16.20;99.90
16114;DHT22;8161;-33.910;151.156;2022-11-18T17:11:53;16.10;99.90
16114;DHT22;8161;-33.910;151.156;2022-11-18T17:14:21;16.10;99.90
16114;DHT22;8161;-33.910;151.156;2022-11-18T17:16:50;16.10;99.90
16114;DHT22;8161;-33.910;151.156;2022-11-18T17:19:21;16.10;99.90
16114;DHT22;8161;-33.910;151.156;2022-11-18T17:21:50;16.10;99.90
16114;DHT22;8161;-33.910;151.156;2022-11-18T17:24:19;16.10;99.90
16114;DHT22;8161;-33.910;151.156;2022-11-18T17:26:47;16.00;99.90
16114;DHT22;8161;-33.910;151.156;2022-11-18T17:29:15;16.00;99.90
16114;DHT22;8161;-33.910;151.156;2022-11-18T17:31:42;16.00;99.90
16114;DHT22;8161;-33.910;151.156;2022-11-18T17:34:11;16.00;99.90
16114;DHT22;8161;-33.910;151.156;2022-11-18T17:36:39;16.00;99.90
16114;DHT22;8161;-33.910;151.156;2022-11-18T17:39:09;16.00;99.90
16114;DHT22;8161;-33.910;151.156;2022-11-18T17:41:36;16.00;99.90
16114;DHT22;8161;-33.910;151.156;2022-11-18T17:44:17;16.00;99.90
16114;DHT22;8161;-33.910;151.156;2022-11-18T17:46:45;16.00;99.90
16114;DHT22;8161;-33.910;151.156;2022-11-18T17:49:16;16.10;99.90
16114;DHT22;8161;-33.910;151.156;2022-11-18T17:51:44;16.00;99.90